createdAt,value
2023-01-04T00:00:26.941Z,77.23
2023-01-04T00:03:18.613Z,77.20
2023-01-04T00:05:50.305Z,77.06
2023-01-04T00:08:21.922Z,77.18
2023-01-04T00:10:53.526Z,77.11
2023-01-04T00:13:25.137Z,77.00
2023-01-04T00:15:58.975Z,77.08
2023-01-04T00:18:34.146Z,77.24
2023-01-04T00:21:14.568Z,77.32
2023-01-04T00:23:48.575Z,77.39
2023-01-04T00:26:22.614Z,77.16
2023-01-04T00:28:58.412Z,77.13
2023-01-04T00:31:30.175Z,77.28
2023-01-04T00:34:04.916Z,77.24
2023-01-04T00:36:37.121Z,77.28
2023-01-04T00:39:15.871Z,77.19
2023-01-04T00:41:58.527Z,76.98
2023-01-04T00:44:32.575Z,77.33
2023-01-04T00:47:05.403Z,77.19
2023-01-04T00:49:37.137Z,77.35
2023-01-04T00:52:09.759Z,77.38
2023-01-04T00:54:41.413Z,77.34
2023-01-04T00:57:13.172Z,77.43
2023-01-04T00:59:44.964Z,77.44
2023-01-04T01:02:16.658Z,77.38
2023-01-04T01:04:48.547Z,77.54
2023-01-04T01:07:20.177Z,77.50
2023-01-04T01:09:51.814Z,77.57
2023-01-04T01:12:23.539Z,77.55
2023-01-04T01:15:00.267Z,77.74
2023-01-04T01:17:32.454Z,77.69
2023-01-04T01:20:06.053Z,77.99
2023-01-04T01:22:37.466Z,77.85
2023-01-04T01:25:10.191Z,77.84
2023-01-04T01:27:41.785Z,77.94
2023-01-04T01:30:14.989Z,77.86
2023-01-04T01:32:46.652Z,77.73
2023-01-04T01:35:18.509Z,77.90
2023-01-04T01:37:50.274Z,77.68
2023-01-04T01:40:22.146Z,77.97
2023-01-04T01:42:53.727Z,77.82
2023-01-04T01:45:36.147Z,77.87
2023-01-04T01:48:13.272Z,77.78
2023-01-04T01:50:50.291Z,77.45
2023-01-04T01:53:22.645Z,77.48
2023-01-04T01:55:56.696Z,77.54
2023-01-04T01:58:32.595Z,77.71
2023-01-04T02:01:05.206Z,77.74
2023-01-04T02:03:40.929Z,77.60
2023-01-04T02:06:16.428Z,77.78
2023-01-04T02:08:49.857Z,77.99
2023-01-04T02:11:20.002Z,77.88
2023-01-04T02:14:10.077Z,78.11
2023-01-04T02:16:57.879Z,78.05
2023-01-04T02:19:54.175Z,78.05
2023-01-04T02:22:47.439Z,78.26
2023-01-04T02:25:50.892Z,78.10
2023-01-04T02:28:37.938Z,78.06
2023-01-04T02:31:23.956Z,78.03
2023-01-04T02:34:00.963Z,78.15
2023-01-04T02:36:40.187Z,78.00
2023-01-04T02:39:22.037Z,78.15
2023-01-04T02:42:00.066Z,78.15
2023-01-04T02:44:57.572Z,78.16
2023-01-04T02:47:54.666Z,78.02
2023-01-04T02:50:33.662Z,78.05
2023-01-04T02:53:09.903Z,78.07
2023-01-04T02:55:52.805Z,78.08
2023-01-04T02:58:37.259Z,78.07
2023-01-04T03:01:36.631Z,78.02
2023-01-04T03:04:39.114Z,78.01
2023-01-04T03:07:18.030Z,78.10
2023-01-04T03:09:55.755Z,78.00
2023-01-04T03:12:36.008Z,78.16
2023-01-04T03:15:13.006Z,77.98
2023-01-04T03:17:50.608Z,78.11
2023-01-04T03:20:25.379Z,78.04
2023-01-04T03:23:18.103Z,78.04
2023-01-04T03:26:14.221Z,78.17
2023-01-04T03:29:06.748Z,78.06
2023-01-04T03:32:01.322Z,78.18
2023-01-04T03:34:56.234Z,78.28
2023-01-04T03:37:35.041Z,78.25
2023-01-04T03:40:38.945Z,78.11
2023-01-04T03:43:34.988Z,78.34
2023-01-04T03:46:29.486Z,78.47
2023-01-04T03:49:07.040Z,78.51
2023-01-04T03:51:40.332Z,78.46
2023-01-04T03:54:17.454Z,78.56
2023-01-04T03:56:51.145Z,78.42
2023-01-04T03:59:23.883Z,78.48
2023-01-04T04:01:55.914Z,78.57
2023-01-04T04:04:45.414Z,78.30
2023-01-04T04:07:34.526Z,78.56
2023-01-04T04:10:06.943Z,78.57
2023-01-04T04:12:38.671Z,78.53
2023-01-04T04:15:12.051Z,78.56
2023-01-04T04:17:42.239Z,78.52
2023-01-04T04:20:15.067Z,78.65
2023-01-04T04:22:46.877Z,78.62
2023-01-04T04:25:18.540Z,78.56
2023-01-04T04:27:50.177Z,78.66
2023-01-04T04:30:21.887Z,78.60
2023-01-04T04:32:53.437Z,78.66
2023-01-04T04:35:25.075Z,78.39
2023-01-04T04:37:56.844Z,78.62
2023-01-04T04:40:45.951Z,78.58
2023-01-04T04:43:17.566Z,78.46
2023-01-04T04:45:49.182Z,78.59
2023-01-04T04:48:20.948Z,78.66
2023-01-04T04:50:52.647Z,78.69
2023-01-04T04:53:24.317Z,78.72
2023-01-04T04:55:56.411Z,78.79
2023-01-04T04:58:28.622Z,78.80
2023-01-04T05:01:00.284Z,78.73
2023-01-04T05:03:32.541Z,78.83
2023-01-04T05:06:04.888Z,78.77
2023-01-04T05:08:37.028Z,78.85
2023-01-04T05:11:10.237Z,78.68
2023-01-04T05:13:42.247Z,78.83
2023-01-04T05:16:13.933Z,78.64
2023-01-04T05:18:45.646Z,78.69
2023-01-04T05:21:20.269Z,78.75
2023-01-04T05:23:52.322Z,78.72
2023-01-04T05:26:23.936Z,78.63
2023-01-04T05:28:55.553Z,78.51
2023-01-04T05:31:27.850Z,78.55
2023-01-04T05:33:59.691Z,78.56
2023-01-04T05:36:31.309Z,78.61
2023-01-04T05:39:02.890Z,78.56
2023-01-04T05:41:52.119Z,78.51
2023-01-04T05:44:23.751Z,78.52
2023-01-04T05:46:55.427Z,78.52
2023-01-04T05:49:27.062Z,78.46
2023-01-04T05:51:58.792Z,78.47
2023-01-04T05:54:30.395Z,78.45
2023-01-04T05:57:02.025Z,78.33
2023-01-04T05:59:40.864Z,78.31
2023-01-04T06:02:19.244Z,78.31
2023-01-04T06:04:58.083Z,78.39
2023-01-04T06:07:31.678Z,78.40
2023-01-04T06:10:03.384Z,78.43
2023-01-04T06:12:34.925Z,78.48
2023-01-04T06:15:09.355Z,78.39
2023-01-04T06:17:42.368Z,78.49
2023-01-04T06:20:14.632Z,78.48
2023-01-04T06:22:46.290Z,78.50
2023-01-04T06:25:18.326Z,78.51
2023-01-04T06:27:50.041Z,78.64
2023-01-04T06:30:21.794Z,78.58
2023-01-04T06:32:53.447Z,78.49
2023-01-04T06:35:25.084Z,78.56
2023-01-04T06:37:56.711Z,78.46
2023-01-04T06:40:28.816Z,78.43
2023-01-04T06:43:00.533Z,78.50
2023-01-04T06:45:32.311Z,78.45
2023-01-04T06:48:08.989Z,78.49
2023-01-04T06:50:41.109Z,78.47
2023-01-04T06:53:12.875Z,78.49
2023-01-04T06:55:46.276Z,78.42
2023-01-04T06:58:16.367Z,78.58
2023-01-04T07:00:48.346Z,78.59
2023-01-04T07:03:20.295Z,78.54
2023-01-04T07:05:52.061Z,78.56
2023-01-04T07:08:24.032Z,78.71
2023-01-04T07:10:56.775Z,78.59
2023-01-04T07:13:28.657Z,78.76
2023-01-04T07:16:00.553Z,78.70
2023-01-04T07:18:32.413Z,78.91
2023-01-04T07:21:04.191Z,78.97
2023-01-04T07:23:35.827Z,78.91
2023-01-04T07:26:07.828Z,79.00
2023-01-04T07:28:57.210Z,79.15
2023-01-04T07:31:29.090Z,79.14
2023-01-04T07:34:00.885Z,79.15
2023-01-04T07:36:32.749Z,79.21
2023-01-04T07:39:05.397Z,79.23
2023-01-04T07:41:37.239Z,79.35
2023-01-04T07:44:10.596Z,79.21
2023-01-04T07:46:41.041Z,79.25
2023-01-04T07:49:18.066Z,79.40
2023-01-04T07:51:51.077Z,79.55
2023-01-04T07:54:24.086Z,79.44
2023-01-04T07:56:55.940Z,79.46
2023-01-04T07:59:28.461Z,79.40
2023-01-04T08:02:01.319Z,79.46
2023-01-04T08:04:35.329Z,79.42
2023-01-04T08:07:07.407Z,79.51
2023-01-04T08:09:39.017Z,79.60
2023-01-04T08:12:10.653Z,79.61
2023-01-04T08:14:42.242Z,79.73
2023-01-04T08:32:53.865Z,80.03
2023-01-04T08:35:25.610Z,80.74
2023-01-04T08:38:13.121Z,81.15
2023-01-04T08:40:58.486Z,81.48
2023-01-04T08:43:33.490Z,81.77
2023-01-04T08:46:07.300Z,81.94
2023-01-04T08:48:40.668Z,82.17
2023-01-04T08:51:15.024Z,82.26
2023-01-04T08:53:46.676Z,81.96
2023-01-04T08:56:18.985Z,82.01
2023-01-04T08:58:50.595Z,81.82
2023-01-04T09:01:22.379Z,81.80
2023-01-04T09:03:55.723Z,81.66
2023-01-04T09:06:27.781Z,81.78
2023-01-04T09:09:00.114Z,81.33
2023-01-04T09:11:35.178Z,81.27
2023-01-04T09:14:09.373Z,80.89
2023-01-04T09:16:41.698Z,80.59
2023-01-04T09:19:21.690Z,80.62
2023-01-04T09:21:54.283Z,80.37
2023-01-04T09:24:26.566Z,80.09
2023-01-04T09:26:58.207Z,80.04
2023-01-04T09:29:30.106Z,79.99
2023-01-04T09:32:01.960Z,79.62
2023-01-04T09:34:33.958Z,79.50
2023-01-04T09:37:06.254Z,79.23
2023-01-04T09:39:37.942Z,79.13
2023-01-04T09:42:18.935Z,78.99
2023-01-04T09:45:22.967Z,78.48
2023-01-04T09:47:54.322Z,78.05
2023-01-04T09:50:30.080Z,78.07
2023-01-04T09:53:07.288Z,77.96
2023-01-04T09:55:41.860Z,77.75
2023-01-04T09:58:23.345Z,77.81
2023-01-04T10:01:02.394Z,77.93
2023-01-04T10:03:36.721Z,77.83
2023-01-04T10:06:11.407Z,77.75
2023-01-04T10:08:44.873Z,77.48
2023-01-04T10:11:22.318Z,77.25
2023-01-04T10:14:05.360Z,77.36
2023-01-04T10:17:20.391Z,77.19
2023-01-04T10:23:03.984Z,76.47
2023-01-04T10:25:46.692Z,76.26
2023-01-04T10:28:32.897Z,76.06
2023-01-04T10:31:39.780Z,75.57
2023-01-04T10:34:19.012Z,75.74
2023-01-04T10:36:53.223Z,75.63
2023-01-04T10:39:32.819Z,75.65
2023-01-04T10:42:13.752Z,75.06
2023-01-04T10:44:54.658Z,75.08
2023-01-04T10:47:32.533Z,74.90
2023-01-04T10:50:12.397Z,74.64
2023-01-04T10:52:47.924Z,74.42
2023-01-04T10:55:28.410Z,74.34
2023-01-04T10:58:05.883Z,73.90
2023-01-04T11:00:44.757Z,73.45
2023-01-04T11:03:22.770Z,72.48
2023-01-04T11:06:02.686Z,71.71
2023-01-04T11:08:39.010Z,71.37
2023-01-04T11:11:13.955Z,71.59
2023-01-04T11:13:45.660Z,71.50
2023-01-04T11:16:17.509Z,71.17
2023-01-04T11:18:51.278Z,70.82
2023-01-04T11:21:26.336Z,70.61
2023-01-04T11:24:21.917Z,70.58
2023-01-04T11:26:52.755Z,70.38
2023-01-04T11:29:36.063Z,70.40
2023-01-04T11:32:19.415Z,70.45
2023-01-04T11:34:53.328Z,70.45
2023-01-04T11:37:34.348Z,70.19
2023-01-04T11:40:29.366Z,70.12
2023-01-04T11:43:19.389Z,69.88
2023-01-04T11:45:59.349Z,69.57
2023-01-04T11:48:40.799Z,68.93
2023-01-04T11:51:37.636Z,69.12
2023-01-04T12:43:26.525Z,67.48
2023-01-04T12:46:57.624Z,67.37
2023-01-04T12:49:53.750Z,67.24
2023-01-04T12:55:59.382Z,67.83
2023-01-04T12:59:25.240Z,67.95
2023-01-04T13:02:21.866Z,67.73
2023-01-04T13:05:43.798Z,67.70
2023-01-04T13:07:53.188Z,67.60
2023-01-04T13:10:34.302Z,67.74
2023-01-04T13:13:31.560Z,67.60
2023-01-04T13:16:17.492Z,67.70
2023-01-04T13:18:52.093Z,67.42
2023-01-04T13:21:30.085Z,67.37
2023-01-04T13:24:05.067Z,67.44
2023-01-04T13:26:42.832Z,67.38
2023-01-04T13:29:23.407Z,67.31
2023-01-04T13:32:03.149Z,67.07
2023-01-04T13:34:37.827Z,67.02
2023-01-04T13:37:17.192Z,67.24
2023-01-04T13:39:51.220Z,67.15
2023-01-04T13:42:29.506Z,66.99
2023-01-04T13:45:25.567Z,67.23
2023-01-04T13:48:01.314Z,67.10
2023-01-04T13:50:44.072Z,67.34
2023-01-04T13:53:23.424Z,67.28
2023-01-04T13:55:57.112Z,67.01
2023-01-04T13:58:28.321Z,67.51
2023-01-04T14:01:05.761Z,67.47
2023-01-04T14:03:44.564Z,67.59
2023-01-04T14:06:28.983Z,67.45
2023-01-04T14:09:05.919Z,67.66
2023-01-04T14:12:09.644Z,67.79
2023-01-04T14:14:50.097Z,67.70
2023-01-04T14:17:34.659Z,67.93
2023-01-04T14:20:28.103Z,68.04
2023-01-04T14:23:00.899Z,68.25
2023-01-04T14:25:57.209Z,68.26
2023-01-04T14:28:41.839Z,68.36
2023-01-04T14:31:46.544Z,68.56
2023-01-04T14:34:18.889Z,68.66
2023-01-04T14:36:50.799Z,68.49
2023-01-04T14:39:32.747Z,68.61
2023-01-04T14:42:05.169Z,68.66
2023-01-04T14:44:41.247Z,68.65
2023-01-04T14:47:14.234Z,68.78
2023-01-04T14:49:46.160Z,68.85
2023-01-04T14:52:24.332Z,68.91
2023-01-04T14:54:56.167Z,68.93
2023-01-04T14:57:27.864Z,69.03
2023-01-04T14:59:59.677Z,68.91
2023-01-04T15:02:33.779Z,68.85
2023-01-04T15:05:06.443Z,69.15
2023-01-04T15:07:40.875Z,69.39
2023-01-04T15:10:29.971Z,69.71
2023-01-04T15:13:04.177Z,70.14
2023-01-04T15:15:36.918Z,70.45
2023-01-04T15:18:09.590Z,70.63
2023-01-04T15:20:43.219Z,71.21
2023-01-04T15:23:16.105Z,71.53
2023-01-04T15:25:48.317Z,72.08
2023-01-04T15:28:21.749Z,72.15
2023-01-04T15:30:53.684Z,72.85
2023-01-04T15:33:27.362Z,74.03
2023-01-04T15:36:03.712Z,74.80
2023-01-04T15:38:35.983Z,75.86
2023-01-04T15:41:09.494Z,76.39
2023-01-04T15:43:41.431Z,76.76
2023-01-04T15:46:13.334Z,77.75
2023-01-04T15:48:45.307Z,78.19
2023-01-04T15:51:17.190Z,78.49
2023-01-04T15:53:50.513Z,79.36
2023-01-04T15:56:22.953Z,80.31
2023-01-04T15:58:56.403Z,80.40
2023-01-04T16:01:28.290Z,80.81
2023-01-04T16:04:00.140Z,80.96
2023-01-04T16:06:31.957Z,81.06
2023-01-04T16:09:04.092Z,81.33
2023-01-04T16:11:35.967Z,81.57
2023-01-04T16:14:07.758Z,82.01
2023-01-04T16:16:39.487Z,81.45
2023-01-04T16:19:12.142Z,81.45
2023-01-04T16:21:43.822Z,81.36
2023-01-04T16:24:44.783Z,81.43
2023-01-04T16:27:07.398Z,81.92
2023-01-04T16:29:39.262Z,81.79
2023-01-04T16:32:11.124Z,81.77
2023-01-04T16:34:43.674Z,81.65
2023-01-04T16:37:15.453Z,82.27
2023-01-04T16:40:05.942Z,82.03
2023-01-04T16:42:39.728Z,82.02
2023-01-04T16:45:13.513Z,81.95
2023-01-04T16:47:46.037Z,82.05
2023-01-04T16:50:17.999Z,81.97
2023-01-04T16:52:50.061Z,82.27
2023-01-04T16:55:24.072Z,82.13
2023-01-04T16:57:56.136Z,82.37
2023-01-04T17:00:27.940Z,82.17
2023-01-04T17:02:59.706Z,82.16
2023-01-04T17:05:31.817Z,82.04
2023-01-04T17:08:04.836Z,82.00
2023-01-04T17:10:39.188Z,82.12
2023-01-04T17:13:10.974Z,82.19
2023-01-04T17:15:44.140Z,82.33
2023-01-04T17:18:17.702Z,82.15
2023-01-04T17:21:16.850Z,82.69
2023-01-04T17:23:52.437Z,82.53
2023-01-04T17:26:25.924Z,82.38
2023-01-04T17:28:59.285Z,82.35
2023-01-04T17:31:34.079Z,82.59
2023-01-04T17:34:07.105Z,83.07
2023-01-04T17:36:39.486Z,83.06
2023-01-04T17:39:11.842Z,82.49
2023-01-04T17:41:43.590Z,82.18
2023-01-04T17:44:15.658Z,82.00
2023-01-04T17:46:47.532Z,81.79
2023-01-04T17:49:25.360Z,81.56
2023-01-04T17:52:00.492Z,81.43
2023-01-04T17:54:32.304Z,81.35
2023-01-04T17:57:04.196Z,81.09
2023-01-04T17:59:36.033Z,80.97
2023-01-04T18:02:07.810Z,80.84
2023-01-04T18:04:39.600Z,80.60
2023-01-04T18:09:44.073Z,80.24
2023-01-04T18:12:16.947Z,80.18
2023-01-04T18:14:49.223Z,80.03
2023-01-04T18:17:21.163Z,79.77
2023-01-04T18:19:53.257Z,79.74
2023-01-04T18:22:25.125Z,79.71
2023-01-04T18:24:56.910Z,79.50
2023-01-04T18:27:28.648Z,79.37
2023-01-04T18:30:00.431Z,79.28
2023-01-04T18:32:32.352Z,79.38
2023-01-04T18:35:05.506Z,79.27
2023-01-04T18:37:37.903Z,79.20
2023-01-04T18:40:12.259Z,79.03
2023-01-04T18:42:48.821Z,79.05
2023-01-04T18:45:20.987Z,78.95
2023-01-04T18:47:52.763Z,78.88
2023-01-04T18:50:24.500Z,78.92
2023-01-04T18:52:56.488Z,78.83
2023-01-04T18:55:28.275Z,78.76
2023-01-04T18:58:00.166Z,78.78
2023-01-04T19:00:32.027Z,78.70
2023-01-04T19:03:03.945Z,78.82
2023-01-04T19:05:36.358Z,78.77
2023-01-04T19:08:08.439Z,78.69
2023-01-04T19:10:40.351Z,78.68
2023-01-04T19:13:12.199Z,78.50
2023-01-04T19:15:47.888Z,78.55
2023-01-04T19:18:19.757Z,78.47
2023-01-04T19:20:51.512Z,78.45
2023-01-04T19:23:23.807Z,78.40
2023-01-04T19:25:56.376Z,78.78
2023-01-04T19:28:28.157Z,79.17
2023-01-04T19:30:59.892Z,79.23
2023-01-04T19:33:31.745Z,79.39
2023-01-04T19:36:06.043Z,79.32
2023-01-04T19:38:38.603Z,79.40
2023-01-04T19:41:15.609Z,79.50
2023-01-04T19:43:48.134Z,79.40
2023-01-04T19:46:20.378Z,79.50
2023-01-04T19:48:52.299Z,79.44
2023-01-04T19:51:25.491Z,79.04
2023-01-04T19:53:57.657Z,78.88
2023-01-04T19:56:29.493Z,78.66
2023-01-04T19:59:01.621Z,78.53
2023-01-04T20:01:33.994Z,78.48
2023-01-04T20:04:06.391Z,78.48
2023-01-04T20:06:38.921Z,78.46
2023-01-04T20:09:10.733Z,78.41
2023-01-04T20:11:42.754Z,78.46
2023-01-04T20:14:14.563Z,78.31
2023-01-04T20:16:46.552Z,78.25
2023-01-04T20:19:18.587Z,78.36
2023-01-04T20:21:50.482Z,78.41
2023-01-04T20:24:22.204Z,78.44
2023-01-04T20:26:54.213Z,78.42
2023-01-04T20:29:26.259Z,78.49
2023-01-04T20:32:00.676Z,78.40
2023-01-04T20:34:32.795Z,78.40
2023-01-04T20:37:04.579Z,78.31
2023-01-04T20:39:36.715Z,78.27
2023-01-04T20:42:26.165Z,78.20
2023-01-04T20:44:57.962Z,78.19
2023-01-04T20:47:30.742Z,78.14
2023-01-04T20:50:03.669Z,78.13
2023-01-04T20:52:35.407Z,77.99
2023-01-04T20:55:13.892Z,78.08
2023-01-04T20:57:48.856Z,77.97
2023-01-04T21:00:22.998Z,78.36
2023-01-04T21:02:54.912Z,79.06
2023-01-04T21:05:26.819Z,79.29
2023-01-04T21:07:58.607Z,79.36
2023-01-04T21:10:30.477Z,79.34
2023-01-04T21:13:03.718Z,79.03
2023-01-04T21:15:38.459Z,78.70
2023-01-04T21:18:11.856Z,78.91
2023-01-04T21:20:45.094Z,79.61
2023-01-04T21:23:19.426Z,79.20
2023-01-04T21:25:51.759Z,79.04
2023-01-04T21:28:24.382Z,79.69
2023-01-04T21:30:56.247Z,79.92
2023-01-04T21:33:28.104Z,79.93
2023-01-04T21:35:59.878Z,79.92
2023-01-04T21:38:31.591Z,79.94
2023-01-04T21:41:09.992Z,79.31
2023-01-04T21:43:42.243Z,79.13
2023-01-04T21:46:15.966Z,78.98
2023-01-04T21:48:46.679Z,78.91
2023-01-04T21:51:18.761Z,78.94
2023-01-04T21:53:50.747Z,79.10
2023-01-04T21:56:25.083Z,79.55
2023-01-04T21:58:56.920Z,79.80
2023-01-04T22:01:34.934Z,80.10
2023-01-04T22:04:07.666Z,80.37
2023-01-04T22:06:42.122Z,80.34
2023-01-04T22:09:14.043Z,80.67
2023-01-04T22:11:46.976Z,80.60
2023-01-04T22:14:19.428Z,80.59
2023-01-04T22:16:51.132Z,80.72
2023-01-04T22:19:23.118Z,80.73
2023-01-04T22:21:55.241Z,80.57
2023-01-04T22:24:30.382Z,80.57
2023-01-04T22:27:06.061Z,80.56
2023-01-04T22:29:38.557Z,80.40
2023-01-04T22:32:10.251Z,80.41
2023-01-04T22:34:41.927Z,80.47
2023-01-04T22:37:13.730Z,80.41
2023-01-04T22:39:45.431Z,80.34
2023-01-04T22:42:17.349Z,80.32
2023-01-04T22:44:49.145Z,80.40
2023-01-04T22:47:21.057Z,80.34
2023-01-04T22:49:52.759Z,80.26
2023-01-04T22:52:24.452Z,80.28
2023-01-04T22:54:56.184Z,80.36
2023-01-04T22:57:27.948Z,80.37
2023-01-04T22:59:59.658Z,80.39
2023-01-04T23:02:31.482Z,80.49
2023-01-04T23:05:03.567Z,80.59
2023-01-04T23:07:35.515Z,80.35
2023-01-04T23:10:08.731Z,80.54
2023-01-04T23:12:40.524Z,80.55
2023-01-04T23:15:13.974Z,80.58
2023-01-04T23:17:45.749Z,80.67
2023-01-04T23:20:20.403Z,80.78
2023-01-04T23:22:52.659Z,80.75
2023-01-04T23:25:24.648Z,80.87
2023-01-04T23:27:56.391Z,80.73
2023-01-04T23:30:28.121Z,80.79
2023-01-04T23:32:59.941Z,80.77
2023-01-04T23:35:31.692Z,80.92
2023-01-04T23:38:03.476Z,80.97
2023-01-04T23:40:35.684Z,81.07
2023-01-04T23:43:07.376Z,81.10
2023-01-04T23:45:40.821Z,81.02
2023-01-04T23:48:14.272Z,81.04
2023-01-04T23:50:46.147Z,81.02
2023-01-04T23:53:18.159Z,81.05
2023-01-04T23:55:57.083Z,81.10
2023-01-04T23:58:31.142Z,81.19
